createdAt,value
2022-10-31T00:00:03.614Z,18.97
2022-10-31T00:02:31.226Z,19.33
2022-10-31T00:04:58.779Z,20.10
2022-10-31T00:07:27.684Z,19.83
2022-10-31T00:09:55.236Z,20.53
2022-10-31T00:12:22.808Z,19.57
2022-10-31T00:14:50.360Z,18.43
2022-10-31T00:17:17.935Z,21.07
2022-10-31T00:19:45.511Z,19.60
2022-10-31T00:22:13.059Z,20.03
2022-10-31T00:24:41.963Z,21.73
2022-10-31T00:27:09.685Z,19.17
2022-10-31T00:29:37.254Z,21.43
2022-10-31T00:32:05.023Z,21.33
2022-10-31T00:34:32.580Z,20.87
2022-10-31T00:37:00.129Z,20.97
2022-10-31T00:39:27.695Z,21.53
2022-10-31T00:41:56.588Z,19.10
2022-10-31T00:44:24.237Z,20.23
2022-10-31T00:46:51.831Z,19.07
2022-10-31T00:49:19.413Z,21.37
2022-10-31T00:51:47.008Z,20.77
2022-10-31T00:54:14.567Z,20.50
2022-10-31T00:56:42.111Z,21.60
2022-10-31T00:59:11.058Z,21.40
2022-10-31T01:01:38.719Z,21.73
2022-10-31T01:04:06.725Z,21.10
2022-10-31T01:06:34.392Z,21.93
2022-10-31T01:09:01.954Z,21.57
2022-10-31T01:11:29.579Z,22.87
2022-10-31T01:13:57.144Z,23.53
2022-10-31T01:16:27.888Z,22.20
2022-10-31T01:18:55.436Z,23.77
2022-10-31T01:21:25.140Z,22.07
2022-10-31T01:23:54.673Z,24.33
2022-10-31T01:26:24.016Z,23.73
2022-10-31T01:28:53.896Z,23.57
2022-10-31T01:31:23.581Z,25.80
2022-10-31T01:33:53.150Z,24.47
2022-10-31T01:36:23.689Z,27.03
2022-10-31T01:38:52.160Z,28.53
2022-10-31T01:41:21.922Z,25.90
2022-10-31T01:43:53.189Z,28.30
2022-10-31T01:46:25.955Z,27.67
2022-10-31T01:48:56.289Z,27.43
2022-10-31T01:51:28.154Z,28.90
2022-10-31T01:54:00.085Z,27.50
2022-10-31T01:56:28.144Z,29.80
2022-10-31T01:58:58.349Z,28.80
2022-10-31T02:01:26.303Z,29.03
2022-10-31T02:03:56.855Z,29.47
2022-10-31T02:06:34.510Z,26.87
2022-10-31T02:09:04.363Z,28.53
2022-10-31T02:11:33.245Z,29.80
2022-10-31T02:14:03.249Z,28.57
2022-10-31T02:16:30.950Z,29.53
2022-10-31T02:19:00.072Z,28.67
2022-10-31T02:21:35.861Z,28.40
2022-10-31T02:24:50.860Z,28.67
2022-10-31T02:27:35.247Z,27.80
2022-10-31T02:30:08.036Z,26.53
2022-10-31T02:32:53.830Z,28.47
2022-10-31T02:35:32.137Z,28.23
2022-10-31T02:38:04.889Z,26.30
2022-10-31T02:40:37.707Z,28.80
2022-10-31T02:43:11.980Z,28.37
2022-10-31T02:45:46.744Z,28.17
2022-10-31T02:48:20.309Z,27.10
2022-10-31T02:50:52.913Z,30.13
2022-10-31T02:53:20.679Z,28.17
2022-10-31T02:55:57.010Z,29.23
2022-10-31T02:58:27.930Z,29.20
2022-10-31T03:01:13.090Z,27.07
2022-10-31T03:03:54.616Z,26.93
2022-10-31T03:06:31.389Z,28.10
2022-10-31T03:09:11.763Z,26.40
2022-10-31T03:11:48.248Z,28.17
2022-10-31T03:14:23.564Z,27.20
2022-10-31T03:16:54.092Z,29.50
2022-10-31T03:19:27.891Z,29.07
2022-10-31T03:22:00.132Z,28.27
2022-10-31T03:24:32.544Z,27.10
2022-10-31T03:27:02.549Z,29.20
2022-10-31T03:29:35.659Z,28.23
2022-10-31T03:32:06.839Z,30.23
2022-10-31T03:34:37.565Z,29.87
2022-10-31T03:37:09.464Z,28.90
2022-10-31T03:39:39.140Z,31.00
2022-10-31T03:42:09.717Z,29.83
2022-10-31T03:44:40.451Z,30.87
2022-10-31T03:47:08.043Z,32.13
2022-10-31T03:49:37.464Z,32.23
2022-10-31T03:52:15.647Z,31.63
2022-10-31T03:54:46.075Z,33.37
2022-10-31T03:57:21.405Z,32.30
2022-10-31T03:59:53.565Z,33.57
2022-10-31T04:02:27.205Z,32.97
2022-10-31T04:04:56.355Z,32.20
2022-10-31T04:07:27.562Z,31.90
2022-10-31T04:09:55.886Z,32.27
2022-10-31T04:12:26.663Z,34.13
2022-10-31T04:14:56.792Z,34.47
2022-10-31T04:17:29.854Z,31.70
2022-10-31T04:20:01.090Z,31.33
2022-10-31T04:22:28.687Z,34.67
2022-10-31T04:24:56.238Z,33.53
2022-10-31T04:27:23.827Z,36.93
2022-10-31T04:29:51.392Z,36.60
2022-10-31T04:32:18.962Z,35.80
2022-10-31T04:34:46.553Z,36.93
2022-10-31T04:37:15.451Z,34.73
2022-10-31T04:39:43.130Z,35.60
2022-10-31T04:42:10.710Z,34.87
2022-10-31T04:44:38.346Z,35.93
2022-10-31T04:47:06.300Z,33.27
2022-10-31T04:49:33.924Z,36.00
2022-10-31T04:52:01.457Z,33.87
2022-10-31T04:54:30.389Z,31.20
2022-10-31T04:56:57.963Z,32.13
2022-10-31T04:59:25.578Z,34.17
2022-10-31T05:01:53.250Z,33.97
2022-10-31T05:04:20.870Z,32.97
2022-10-31T05:06:48.458Z,31.17
2022-10-31T05:09:16.042Z,30.33
2022-10-31T05:11:44.987Z,29.13
2022-10-31T05:14:12.533Z,30.47
2022-10-31T05:16:40.086Z,32.13
2022-10-31T05:19:07.703Z,28.83
2022-10-31T05:21:35.412Z,30.77
2022-10-31T05:24:02.994Z,31.03
2022-10-31T05:26:30.568Z,31.00
2022-10-31T05:28:59.624Z,27.53
2022-10-31T05:31:27.191Z,32.27
2022-10-31T05:33:54.737Z,30.33
2022-10-31T05:36:22.280Z,31.83
2022-10-31T05:38:49.816Z,29.17
2022-10-31T05:41:17.356Z,30.00
2022-10-31T05:43:44.951Z,29.83
2022-10-31T05:46:13.865Z,31.27
2022-10-31T05:48:41.425Z,32.27
2022-10-31T05:51:08.994Z,26.73
2022-10-31T05:53:36.539Z,30.87
2022-10-31T05:56:04.112Z,29.70
2022-10-31T05:58:31.668Z,28.67
2022-10-31T06:00:59.215Z,29.50
2022-10-31T06:03:28.115Z,27.07
2022-10-31T06:05:55.677Z,28.70
2022-10-31T06:08:23.257Z,27.40
2022-10-31T06:10:50.851Z,26.20
2022-10-31T06:13:18.401Z,24.53
2022-10-31T06:15:46.001Z,27.47
2022-10-31T06:18:13.566Z,24.30
2022-10-31T06:20:42.502Z,26.83
2022-10-31T06:23:10.061Z,27.40
2022-10-31T06:25:37.797Z,26.87
2022-10-31T06:28:05.647Z,25.07
2022-10-31T06:30:33.202Z,29.47
2022-10-31T06:33:04.592Z,29.37
2022-10-31T06:35:32.333Z,28.57
2022-10-31T06:38:01.675Z,27.17
2022-10-31T06:40:29.432Z,27.07
2022-10-31T06:43:00.601Z,28.20
2022-10-31T06:45:28.833Z,26.37
2022-10-31T06:48:16.651Z,27.33
2022-10-31T06:50:44.537Z,26.53
2022-10-31T06:53:15.022Z,27.37
2022-10-31T06:55:43.651Z,26.67
2022-10-31T06:58:12.420Z,26.87
2022-10-31T07:00:40.033Z,26.60
2022-10-31T07:03:09.448Z,25.93
2022-10-31T07:05:37.033Z,29.77
2022-10-31T07:08:07.404Z,25.87
2022-10-31T07:10:40.413Z,26.67
2022-10-31T07:13:12.795Z,28.13
2022-10-31T07:15:41.779Z,29.37
2022-10-31T07:18:11.603Z,26.17
2022-10-31T07:20:39.749Z,27.07
2022-10-31T07:23:07.328Z,28.13
2022-10-31T07:25:36.265Z,25.77
2022-10-31T07:28:04.126Z,26.60
2022-10-31T07:30:31.857Z,22.77
2022-10-31T07:32:59.627Z,25.50
2022-10-31T07:35:29.572Z,25.00
2022-10-31T07:37:58.247Z,22.50
2022-10-31T07:40:26.654Z,24.03
2022-10-31T07:42:55.705Z,22.33
2022-10-31T07:45:23.394Z,24.87
2022-10-31T07:47:52.425Z,20.63
2022-10-31T07:50:21.569Z,22.90
2022-10-31T07:52:49.313Z,21.13
2022-10-31T07:55:17.106Z,23.70
2022-10-31T07:57:44.668Z,24.90
2022-10-31T08:00:14.557Z,23.43
2022-10-31T08:02:42.197Z,23.33
2022-10-31T08:05:10.082Z,24.17
2022-10-31T08:07:39.225Z,23.20
2022-10-31T08:10:07.535Z,25.97
2022-10-31T08:12:35.089Z,20.50
2022-10-31T08:15:02.904Z,20.40
2022-10-31T08:17:31.817Z,21.83
2022-10-31T08:19:59.386Z,20.93
2022-10-31T08:22:26.975Z,19.30
2022-10-31T08:24:54.661Z,21.07
2022-10-31T08:27:22.269Z,20.90
2022-10-31T08:29:49.925Z,23.43
2022-10-31T08:32:17.553Z,22.50
2022-10-31T08:34:46.444Z,23.90
2022-10-31T08:37:13.998Z,23.43
2022-10-31T08:39:41.572Z,24.67
2022-10-31T08:42:09.214Z,22.63
2022-10-31T08:44:36.767Z,24.73
2022-10-31T08:47:04.356Z,24.67
2022-10-31T08:49:32.976Z,23.33
2022-10-31T08:52:01.968Z,24.60
2022-10-31T08:54:29.704Z,24.37
2022-10-31T08:56:57.676Z,26.50
2022-10-31T08:59:25.288Z,26.47
2022-10-31T09:01:52.984Z,26.47
2022-10-31T09:04:20.617Z,23.50
2022-10-31T09:07:19.674Z,25.00
2022-10-31T09:09:37.079Z,25.63
2022-10-31T09:12:05.043Z,25.47
2022-10-31T09:14:32.602Z,25.30
2022-10-31T09:17:00.154Z,25.70
2022-10-31T09:19:27.720Z,27.17
2022-10-31T09:21:55.829Z,24.93
2022-10-31T09:24:23.527Z,25.27
2022-10-31T09:26:52.439Z,26.20
2022-10-31T09:29:20.006Z,22.80
2022-10-31T09:31:47.542Z,25.20
2022-10-31T09:34:15.119Z,25.53
2022-10-31T09:36:43.992Z,25.20
2022-10-31T09:39:11.618Z,23.23
2022-10-31T09:42:04.043Z,23.10
2022-10-31T09:44:41.507Z,23.47
2022-10-31T09:47:19.359Z,21.17
2022-10-31T09:50:01.701Z,21.90
2022-10-31T09:52:33.093Z,20.37
2022-10-31T09:55:06.783Z,22.43
2022-10-31T09:57:38.222Z,18.80
2022-10-31T10:00:07.349Z,21.07
2022-10-31T10:02:39.482Z,21.63
2022-10-31T10:05:11.779Z,20.30
2022-10-31T10:07:46.289Z,22.37
2022-10-31T10:10:19.985Z,20.67
2022-10-31T10:13:18.794Z,21.27
2022-10-31T10:16:08.722Z,20.87
2022-10-31T10:18:48.926Z,16.90
2022-10-31T10:21:27.571Z,18.93
2022-10-31T10:24:05.825Z,16.97
2022-10-31T10:26:38.824Z,17.07
2022-10-31T10:29:26.058Z,18.00
2022-10-31T10:31:55.581Z,17.67
2022-10-31T10:34:26.509Z,16.47
2022-10-31T10:36:58.135Z,19.00
2022-10-31T10:39:31.549Z,18.37
2022-10-31T10:42:19.040Z,20.20
2022-10-31T10:45:07.494Z,19.90
2022-10-31T10:47:43.334Z,19.73
2022-10-31T10:50:17.818Z,19.83
2022-10-31T10:52:53.931Z,22.30
2022-10-31T10:55:34.941Z,21.07
2022-10-31T10:58:04.531Z,21.50
2022-10-31T11:00:37.892Z,18.97
2022-10-31T11:03:06.663Z,20.17
2022-10-31T11:05:38.939Z,19.10
2022-10-31T11:08:08.784Z,21.47
2022-10-31T11:10:37.439Z,19.43
2022-10-31T11:13:19.537Z,17.73
2022-10-31T11:15:57.516Z,19.83
2022-10-31T11:18:28.028Z,20.17
2022-10-31T11:21:06.378Z,21.17
2022-10-31T11:23:34.949Z,20.93
2022-10-31T11:26:04.506Z,20.03
2022-10-31T11:28:35.685Z,18.63
2022-10-31T11:31:13.918Z,17.90
2022-10-31T11:33:57.909Z,18.03
2022-10-31T11:36:27.979Z,17.73
2022-10-31T11:38:56.909Z,18.45
2022-10-31T11:41:30.109Z,15.27
2022-10-31T11:44:00.035Z,15.63
2022-10-31T11:46:39.031Z,17.23
2022-10-31T11:49:13.145Z,17.07
2022-10-31T11:51:42.039Z,16.00
2022-10-31T11:54:23.009Z,16.60
2022-10-31T11:56:50.753Z,16.08
2022-10-31T11:59:25.480Z,13.20
2022-10-31T12:01:55.993Z,15.10
2022-10-31T12:04:34.655Z,14.05
2022-10-31T12:07:02.492Z,14.55
2022-10-31T12:09:32.068Z,16.80
2022-10-31T12:12:16.291Z,14.83
2022-10-31T12:14:56.264Z,15.80
2022-10-31T12:17:32.225Z,17.23
2022-10-31T12:20:09.426Z,16.83
2022-10-31T12:22:47.127Z,16.65
2022-10-31T12:25:28.529Z,16.67
2022-10-31T12:28:12.321Z,16.90
2022-10-31T12:30:52.912Z,16.63
2022-10-31T12:33:36.471Z,15.23
2022-10-31T12:36:17.838Z,14.60
2022-10-31T12:38:59.611Z,14.33
2022-10-31T12:41:41.436Z,14.87
2022-10-31T12:44:16.461Z,15.50
2022-10-31T12:47:03.118Z,13.70
2022-10-31T12:49:45.603Z,14.93
2022-10-31T12:52:27.485Z,14.87
2022-10-31T12:55:10.329Z,15.63
2022-10-31T12:57:43.136Z,16.37
2022-10-31T13:00:16.859Z,16.50
2022-10-31T13:02:50.882Z,15.43
2022-10-31T13:05:24.501Z,15.87
2022-10-31T13:07:58.370Z,16.57
2022-10-31T13:10:31.659Z,17.47
2022-10-31T13:13:07.400Z,17.50
2022-10-31T13:15:48.218Z,15.97
2022-10-31T13:18:29.225Z,17.57
2022-10-31T13:21:01.173Z,16.80
2022-10-31T13:26:25.825Z,15.77
2022-10-31T13:28:59.490Z,19.07
2022-10-31T13:31:27.467Z,17.33
2022-10-31T13:33:58.829Z,16.23
2022-10-31T13:36:35.799Z,16.87
2022-10-31T13:39:16.288Z,17.10
2022-10-31T13:41:50.084Z,16.43
2022-10-31T13:44:22.865Z,16.67
2022-10-31T13:46:50.487Z,14.33
2022-10-31T13:49:41.871Z,12.60
2022-10-31T13:52:26.222Z,12.63
2022-10-31T13:54:57.589Z,10.60
2022-10-31T13:57:34.448Z,9.70
2022-10-31T14:00:05.929Z,9.70
2022-10-31T14:02:36.491Z,7.60
2022-10-31T14:05:11.168Z,8.48
2022-10-31T14:07:47.012Z,8.75
2022-10-31T14:10:26.140Z,8.23
2022-10-31T14:12:54.716Z,8.10
2022-10-31T14:15:24.828Z,8.38
2022-10-31T14:17:57.456Z,10.50
2022-10-31T14:20:35.967Z,10.77
2022-10-31T14:23:14.756Z,6.97
2022-10-31T14:25:42.365Z,5.80
2022-10-31T14:28:22.514Z,5.93
2022-10-31T14:30:54.683Z,5.10
2022-10-31T14:33:24.207Z,7.10
2022-10-31T14:35:59.275Z,8.50
2022-10-31T14:38:42.829Z,9.63
2022-10-31T14:41:43.231Z,8.98
2022-10-31T14:44:47.900Z,8.48
2022-10-31T14:47:25.817Z,9.90
2022-10-31T14:50:11.531Z,9.02
2022-10-31T14:52:40.373Z,9.77
2022-10-31T14:55:15.434Z,10.18
2022-10-31T14:57:49.705Z,10.02
2022-10-31T15:00:20.926Z,9.57
2022-10-31T15:03:01.987Z,9.83
2022-10-31T15:05:31.358Z,9.73
2022-10-31T15:08:00.274Z,9.00
2022-10-31T15:10:32.960Z,9.63
2022-10-31T15:13:10.991Z,9.77
2022-10-31T15:15:39.688Z,10.87
2022-10-31T15:18:07.739Z,9.87
2022-10-31T15:20:40.335Z,10.00
2022-10-31T15:23:11.363Z,10.60
2022-10-31T15:25:40.373Z,12.37
2022-10-31T15:28:16.219Z,12.30
2022-10-31T15:30:52.351Z,13.50
2022-10-31T15:33:25.805Z,12.83
2022-10-31T15:35:57.317Z,14.13
2022-10-31T15:38:26.077Z,14.97
2022-10-31T15:40:58.886Z,15.03
2022-10-31T15:43:27.066Z,15.10
2022-10-31T15:45:54.818Z,15.37
2022-10-31T15:48:25.892Z,15.47
2022-10-31T15:50:58.392Z,15.87
2022-10-31T15:53:28.446Z,15.93
2022-10-31T15:55:59.659Z,16.57
2022-10-31T15:58:29.268Z,22.17
2022-10-31T16:01:01.879Z,20.83
2022-10-31T16:03:31.835Z,16.53
2022-10-31T16:06:01.356Z,19.47
2022-10-31T16:08:35.486Z,17.63
2022-10-31T16:11:19.461Z,17.93
2022-10-31T16:13:56.662Z,16.10
2022-10-31T16:16:40.463Z,16.27
2022-10-31T16:19:18.043Z,16.67
2022-10-31T16:21:46.633Z,16.67
2022-10-31T16:24:20.281Z,15.17
2022-10-31T16:26:55.015Z,17.73
2022-10-31T16:29:34.645Z,17.57
2022-10-31T16:32:02.682Z,17.53
2022-10-31T16:34:30.289Z,16.80
2022-10-31T16:36:57.843Z,15.83
2022-10-31T16:39:25.456Z,16.00
2022-10-31T16:41:57.948Z,19.73
2022-10-31T16:44:27.477Z,15.97
2022-10-31T16:47:10.945Z,14.70
2022-10-31T16:49:38.697Z,12.77
2022-10-31T16:52:07.565Z,15.10
2022-10-31T16:54:35.152Z,14.20
2022-10-31T16:57:06.174Z,16.40
2022-10-31T16:59:34.841Z,15.73
2022-10-31T17:02:05.147Z,14.87
2022-10-31T17:04:32.921Z,17.60
2022-10-31T17:07:00.580Z,16.37
2022-10-31T17:09:28.174Z,20.10
2022-10-31T17:11:55.980Z,19.43
2022-10-31T17:14:25.011Z,18.60
2022-10-31T17:16:52.616Z,17.57
2022-10-31T17:19:20.446Z,17.87
2022-10-31T17:21:48.041Z,18.63
2022-10-31T17:24:16.651Z,16.60
2022-10-31T17:26:44.287Z,17.33
2022-10-31T17:29:12.054Z,19.10
2022-10-31T17:31:40.987Z,18.47
2022-10-31T17:34:08.689Z,18.00
2022-10-31T17:36:37.402Z,16.83
2022-10-31T17:39:07.524Z,17.97
2022-10-31T17:41:35.241Z,19.00
2022-10-31T17:44:02.824Z,20.00
2022-10-31T17:46:30.439Z,19.53
2022-10-31T17:49:00.796Z,24.73
2022-10-31T17:51:28.617Z,20.30
2022-10-31T17:53:56.208Z,21.23
2022-10-31T17:56:23.802Z,21.93
2022-10-31T17:58:57.986Z,21.37
2022-10-31T18:01:25.737Z,20.40
2022-10-31T18:03:53.429Z,27.10
2022-10-31T18:06:22.338Z,20.37
2022-10-31T18:08:49.896Z,19.53
2022-10-31T18:11:20.406Z,19.20
2022-10-31T18:13:48.057Z,18.97
2022-10-31T18:16:18.808Z,18.60
2022-10-31T18:18:50.468Z,19.67
2022-10-31T18:21:18.132Z,19.17
2022-10-31T18:23:47.752Z,20.53
2022-10-31T18:26:15.349Z,19.70
2022-10-31T18:28:42.953Z,21.90
2022-10-31T18:31:11.191Z,20.53
2022-10-31T18:33:38.827Z,20.73
2022-10-31T18:36:07.606Z,22.43
2022-10-31T18:38:38.086Z,22.53
2022-10-31T18:41:07.129Z,21.53
2022-10-31T18:43:34.731Z,21.53
2022-10-31T18:46:03.427Z,22.30
2022-10-31T18:48:31.478Z,21.63
2022-10-31T18:50:59.148Z,19.87
2022-10-31T18:53:26.729Z,21.13
2022-10-31T18:55:54.320Z,22.83
2022-10-31T18:58:23.356Z,25.47
2022-10-31T19:00:50.987Z,23.40
2022-10-31T19:03:24.895Z,22.63
2022-10-31T19:05:56.160Z,20.23
2022-10-31T19:08:24.122Z,21.17
2022-10-31T19:10:51.756Z,20.83
2022-10-31T19:13:19.345Z,21.10
2022-10-31T19:15:48.734Z,23.60
2022-10-31T19:18:16.388Z,22.10
2022-10-31T19:20:44.039Z,21.60
2022-10-31T19:23:11.599Z,22.53
2022-10-31T19:25:39.352Z,22.40
2022-10-31T19:28:07.094Z,23.00
2022-10-31T19:30:34.683Z,23.90
2022-10-31T19:33:03.604Z,22.17
2022-10-31T19:35:31.151Z,22.07
2022-10-31T19:37:59.137Z,23.53
2022-10-31T19:40:26.948Z,24.63
2022-10-31T19:42:54.509Z,21.50
2022-10-31T19:45:22.388Z,22.67
2022-10-31T19:47:49.973Z,22.27
2022-10-31T19:50:19.085Z,25.07
2022-10-31T19:52:47.538Z,21.83
2022-10-31T19:55:16.090Z,23.63
2022-10-31T20:00:31.535Z,24.07
2022-10-31T20:03:00.752Z,25.17
2022-10-31T20:05:29.911Z,23.23
2022-10-31T20:07:58.082Z,24.37
2022-10-31T20:10:26.139Z,24.17
2022-10-31T20:12:53.699Z,23.67
2022-10-31T20:15:21.348Z,22.77
2022-10-31T20:17:49.352Z,23.20
2022-10-31T20:20:17.350Z,24.13
2022-10-31T20:22:47.229Z,21.60
2022-10-31T20:25:14.878Z,25.27
2022-10-31T20:27:42.514Z,22.93
2022-10-31T20:30:11.063Z,24.93
2022-10-31T20:32:38.914Z,26.70
2022-10-31T20:35:07.226Z,24.43
2022-10-31T20:37:34.799Z,26.97
2022-10-31T20:40:04.083Z,25.80
2022-10-31T20:42:31.656Z,25.40
2022-10-31T20:44:59.482Z,26.60
2022-10-31T20:47:27.268Z,28.10
2022-10-31T20:49:55.008Z,27.70
2022-10-31T20:52:22.584Z,22.00
2022-10-31T20:54:50.163Z,27.93
2022-10-31T20:57:19.100Z,27.10
2022-10-31T20:59:46.658Z,22.13
2022-10-31T21:02:14.385Z,25.70
2022-10-31T21:04:42.134Z,26.53
2022-10-31T21:07:09.748Z,26.83
2022-10-31T21:09:37.449Z,25.23
2022-10-31T21:12:05.733Z,26.27
2022-10-31T21:14:36.570Z,26.13
2022-10-31T21:17:04.649Z,27.37
2022-10-31T21:19:32.214Z,28.40
2022-10-31T21:22:00.012Z,24.90
2022-10-31T21:24:28.723Z,25.73
2022-10-31T21:26:56.479Z,26.33
2022-10-31T21:29:24.337Z,27.63
2022-10-31T21:31:53.331Z,23.33
2022-10-31T21:34:20.958Z,24.60
2022-10-31T21:36:48.511Z,26.57
2022-10-31T21:39:16.253Z,25.17
2022-10-31T21:41:44.380Z,23.73
2022-10-31T21:44:11.995Z,25.10
2022-10-31T21:46:39.961Z,26.80
2022-10-31T21:49:11.291Z,26.43
2022-10-31T21:51:38.912Z,25.17
2022-10-31T21:54:24.266Z,25.67
2022-10-31T21:56:52.084Z,24.07
2022-10-31T21:59:20.142Z,25.13
2022-10-31T22:01:47.914Z,25.87
2022-10-31T22:04:17.362Z,23.07
2022-10-31T22:06:45.277Z,24.27
2022-10-31T22:09:14.607Z,24.87
2022-10-31T22:11:42.770Z,23.73
2022-10-31T22:14:12.856Z,22.90
2022-10-31T22:16:41.121Z,23.03
2022-10-31T22:19:11.725Z,23.87
2022-10-31T22:21:43.555Z,22.57
2022-10-31T22:24:11.809Z,22.27
2022-10-31T22:26:40.250Z,23.57
2022-10-31T22:29:11.824Z,18.07
2022-10-31T22:31:40.874Z,22.43
2022-10-31T22:34:09.021Z,23.57
2022-10-31T22:36:37.747Z,22.43
2022-10-31T22:39:07.668Z,21.93
2022-10-31T22:41:37.044Z,25.03
2022-10-31T22:44:06.064Z,23.27
2022-10-31T22:46:35.583Z,22.97
2022-10-31T22:49:05.146Z,23.37
2022-10-31T22:51:35.048Z,21.37
2022-10-31T22:54:02.984Z,22.57
2022-10-31T22:56:34.546Z,20.77
2022-10-31T22:59:02.971Z,19.47
2022-10-31T23:01:33.127Z,21.33
2022-10-31T23:04:01.875Z,20.60
2022-10-31T23:06:31.686Z,22.13
2022-10-31T23:09:01.370Z,21.50
2022-10-31T23:11:32.266Z,22.17
2022-10-31T23:14:13.898Z,22.13
2022-10-31T23:16:47.091Z,21.60
2022-10-31T23:19:16.840Z,22.00
2022-10-31T23:21:59.582Z,21.47
2022-10-31T23:24:34.051Z,20.33
2022-10-31T23:27:05.389Z,21.40
2022-10-31T23:29:35.026Z,23.27
2022-10-31T23:32:03.255Z,21.93
2022-10-31T23:34:30.839Z,22.40
2022-10-31T23:36:58.678Z,22.67
2022-10-31T23:39:26.442Z,23.07
2022-10-31T23:41:54.017Z,21.67
2022-10-31T23:44:21.609Z,20.90
2022-10-31T23:46:50.539Z,22.03
2022-10-31T23:49:18.240Z,23.20
2022-10-31T23:51:45.832Z,21.53
2022-10-31T23:54:13.446Z,21.40
2022-10-31T23:56:41.072Z,23.00
2022-10-31T23:59:09.038Z,23.40
